createdAt,value
2022-09-30T00:05:18.339Z,97978.4
2022-09-30T00:11:43.413Z,97969.9
2022-09-30T00:17:34.946Z,97972.7
2022-09-30T00:23:14.754Z,97973.7
2022-09-30T00:28:58.595Z,97986
2022-09-30T00:34:41.101Z,97994.9
2022-09-30T00:40:17.057Z,97983.4
2022-09-30T00:45:52.175Z,97986
2022-09-30T00:51:36.145Z,97977.7
2022-09-30T00:57:11.137Z,97981.1
2022-09-30T01:02:55.167Z,97977.4
2022-09-30T01:08:30.054Z,97980.3
2022-09-30T01:14:25.830Z,97979.4
2022-09-30T01:20:21.810Z,97983.9
2022-09-30T01:25:56.650Z,97990.6
2022-09-30T01:31:41.985Z,97988.3
2022-09-30T01:37:27.507Z,97980.8
2022-09-30T01:43:13.148Z,97979.5
2022-09-30T01:48:50.839Z,97981.2
2022-09-30T01:54:28.335Z,97981.7
2022-09-30T02:00:06.938Z,97981.1
2022-09-30T02:05:41.952Z,97984.5
2022-09-30T02:11:22.178Z,97981.5
2022-09-30T02:17:06.083Z,97977
2022-09-30T02:22:41.178Z,97978
2022-09-30T02:28:19.953Z,97976
2022-09-30T02:33:59.001Z,97967
2022-09-30T02:40:03.755Z,97968
2022-09-30T02:45:38.909Z,97968.8
2022-09-30T02:52:09.986Z,97966.5
2022-09-30T02:57:52.732Z,97970.1
2022-09-30T03:03:27.688Z,97966.8
2022-09-30T03:09:03.473Z,97967.1
2022-09-30T03:14:39.176Z,97965.7
2022-09-30T03:20:17.770Z,97969
2022-09-30T03:25:58.100Z,97975.2
2022-09-30T03:31:34.243Z,97982.7
2022-09-30T03:37:09.999Z,97985.3
2022-09-30T03:42:47.202Z,97991
2022-09-30T03:48:23.022Z,98003.9
2022-09-30T03:53:57.755Z,98011.7
2022-09-30T03:59:38.349Z,98019.7
2022-09-30T04:05:13.555Z,98022
2022-09-30T04:10:49.539Z,98024.4
2022-09-30T04:16:28.662Z,98022.3
2022-09-30T04:22:10.036Z,98033.1
2022-09-30T04:27:45.033Z,98043.6
2022-09-30T04:33:26.076Z,98053.4
2022-09-30T04:39:08.556Z,98057.6
2022-09-30T04:44:47.877Z,98067.8
2022-09-30T04:50:23.899Z,98075.9
2022-09-30T04:55:58.964Z,98087.1
2022-09-30T05:01:39.493Z,98092.4
2022-09-30T05:07:15.524Z,98101.6
2022-09-30T05:12:50.571Z,98109.3
2022-09-30T05:18:25.670Z,98115.4
2022-09-30T05:24:35.824Z,98118.2
2022-09-30T05:30:14.141Z,98124.1
2022-09-30T05:35:55.946Z,98126.5
2022-09-30T05:41:31.143Z,98133.3
2022-09-30T05:47:16.394Z,98138
2022-09-30T05:52:51.160Z,98143.9
2022-09-30T05:58:26.030Z,98146.5
2022-09-30T06:04:15.757Z,98156
2022-09-30T06:09:52.320Z,98165.7
2022-09-30T06:15:49.376Z,98167.6
2022-09-30T06:21:27.787Z,98174.4
2022-09-30T06:27:14.433Z,98181.9
2022-09-30T06:32:51.762Z,98187.8
2022-09-30T06:38:26.696Z,98197.8
2022-09-30T06:44:18.037Z,98209.5
2022-09-30T06:50:06.136Z,98215.5
2022-09-30T06:56:01.103Z,98228.7
2022-09-30T07:01:38.335Z,98234.9
2022-09-30T07:07:20.191Z,98244.8
2022-09-30T07:12:55.113Z,98255.6
2022-09-30T07:18:33.294Z,98269.3
2022-09-30T07:24:08.490Z,98278.5
2022-09-30T07:30:22.958Z,98289.9
2022-09-30T07:36:03.575Z,98298.4
2022-09-30T07:41:40.507Z,98305.2
2022-09-30T07:47:15.508Z,98309.2
2022-09-30T07:53:18.796Z,98308.8
2022-09-30T07:58:58.246Z,98315.7
2022-09-30T08:04:44.991Z,98331.2
2022-09-30T08:15:56.266Z,98342.8
2022-09-30T08:21:38.498Z,98351.6
2022-09-30T08:27:14.058Z,98362
2022-09-30T08:32:51.018Z,98374.9
2022-09-30T08:38:26.305Z,98382
2022-09-30T08:44:01.522Z,98390.9
2022-09-30T08:49:36.265Z,98399.9
2022-09-30T08:55:12.922Z,98407.2
2022-09-30T09:00:52.295Z,98418.5
2022-09-30T09:06:28.848Z,98429.2
2022-09-30T09:12:11.253Z,98439.6
2022-09-30T09:18:24.763Z,98451.5
2022-09-30T09:24:06.651Z,98462
2022-09-30T09:29:43.047Z,98468.8
2022-09-30T09:35:18.163Z,98472.3
2022-09-30T09:40:53.835Z,98471
2022-09-30T09:46:29.321Z,98478
2022-09-30T09:52:14.746Z,98490.6
2022-09-30T09:58:01.891Z,98497
2022-09-30T10:03:38.404Z,98493.5
2022-09-30T10:09:22.195Z,98497.9
2022-09-30T10:14:58.228Z,98500.4
2022-09-30T10:20:35.576Z,98499.7
2022-09-30T10:26:13.902Z,98501
2022-09-30T10:32:00.696Z,98502.2
2022-09-30T10:37:37.127Z,98507.9
2022-09-30T10:43:12.261Z,98514.5
2022-09-30T10:48:46.978Z,98520.9
2022-09-30T10:54:23.558Z,98529.4
2022-09-30T10:59:58.970Z,98530.9
2022-09-30T11:05:34.193Z,98539
2022-09-30T11:11:12.178Z,98548.5
2022-09-30T11:16:48.724Z,98559.1
2022-09-30T11:22:24.388Z,98556.1
2022-09-30T11:27:59.691Z,98557.4
2022-09-30T11:33:44.327Z,98556.5
2022-09-30T11:39:27.671Z,98559
2022-09-30T11:45:03.659Z,98557.5
2022-09-30T11:50:38.551Z,98565.5
2022-09-30T11:56:13.789Z,98568.6
2022-09-30T12:02:10.383Z,98571.3
2022-09-30T12:07:47.012Z,98574.4
2022-09-30T12:13:22.153Z,98574
2022-09-30T12:18:57.708Z,98566.9
2022-09-30T12:24:32.425Z,98570.5
2022-09-30T12:30:07.402Z,98558.2
2022-09-30T12:35:42.450Z,98556.6
2022-09-30T12:41:17.632Z,98559.5
2022-09-30T12:46:52.759Z,98565.8
2022-09-30T12:52:27.775Z,98559
2022-09-30T12:58:02.501Z,98564.3
2022-09-30T13:03:37.574Z,98563.7
2022-09-30T13:09:12.854Z,98556.7
2022-09-30T13:14:47.955Z,98555.4
2022-09-30T13:20:22.864Z,98552
2022-09-30T13:25:58.247Z,98549.8
2022-09-30T13:31:33.613Z,98555.4
2022-09-30T13:37:09.329Z,98567.5
2022-09-30T13:42:48.424Z,98570.6
2022-09-30T13:48:23.339Z,98573.4
2022-09-30T13:53:58.569Z,98566.3
2022-09-30T13:59:33.498Z,98554.1
2022-09-30T14:05:08.717Z,98558.2
2022-09-30T14:10:43.844Z,98551.7
2022-09-30T14:16:19.601Z,98551.6
2022-09-30T14:21:55.457Z,98557.2
2022-09-30T14:27:30.524Z,98551.6
2022-09-30T14:33:06.739Z,98560.6
2022-09-30T14:38:42.201Z,98566.6
2022-09-30T14:44:17.284Z,98563.7
2022-09-30T14:49:53.847Z,98567.3
2022-09-30T14:55:29.697Z,98564.4
2022-09-30T15:01:05.177Z,98572
2022-09-30T15:06:41.815Z,98568.8
2022-09-30T15:12:17.389Z,98578.3
2022-09-30T15:17:52.307Z,98583.1
2022-09-30T15:23:27.339Z,98583.5
2022-09-30T15:29:03.176Z,98576.1
2022-09-30T15:34:37.924Z,98577.8
2022-09-30T15:40:12.914Z,98581.6
2022-09-30T15:45:48.038Z,98592.4
2022-09-30T15:51:23.937Z,98600.1
2022-09-30T15:56:58.744Z,98604.2
2022-09-30T16:02:33.775Z,98620.2
2022-09-30T16:08:08.937Z,98625.6
2022-09-30T16:14:05.805Z,98631.7
2022-09-30T16:19:39.340Z,98639.8
2022-09-30T16:25:15.041Z,98653.9
2022-09-30T16:30:51.226Z,98668.8
2022-09-30T16:36:25.937Z,98684.7
2022-09-30T16:42:00.681Z,98695
2022-09-30T16:47:35.369Z,98702.2
2022-09-30T16:53:11.513Z,98707.3
2022-09-30T16:58:46.376Z,98718.7
2022-09-30T17:04:22.701Z,98722.9
2022-09-30T17:09:58.851Z,98733.1
2022-09-30T17:15:33.791Z,98740.2
2022-09-30T17:21:08.834Z,98745.8
2022-09-30T17:26:44.912Z,98751.7
2022-09-30T17:32:24.357Z,98757.9
2022-09-30T17:37:59.180Z,98768.1
2022-09-30T17:43:34.607Z,98777.9
2022-09-30T17:49:09.554Z,98790.4
2022-09-30T17:54:52.922Z,98798.7
2022-09-30T18:00:28.239Z,98798.6
2022-09-30T18:06:04.278Z,98807.8
2022-09-30T18:11:45.300Z,98821.8
2022-09-30T18:17:21.849Z,98823.1
2022-09-30T18:22:56.969Z,98831.3
2022-09-30T18:28:32.603Z,98832.3
2022-09-30T18:34:08.949Z,98838.4
2022-09-30T18:39:44.712Z,98825.2
2022-09-30T18:45:19.881Z,98831.1
2022-09-30T18:50:54.793Z,98844.2
2022-09-30T18:56:30.503Z,98863.4
2022-09-30T19:02:05.931Z,98884.2
2022-09-30T19:07:41.201Z,98896.9
2022-09-30T19:13:38.479Z,98906.2
2022-09-30T19:19:12.320Z,98900.6
2022-09-30T19:24:47.320Z,98906.1
2022-09-30T19:30:29.359Z,98900.8
2022-09-30T19:36:15.685Z,98901.3
2022-09-30T19:41:50.915Z,98909.3
2022-09-30T19:47:27.280Z,98907.5
2022-09-30T19:53:26.337Z,98910.6
2022-09-30T19:59:06.180Z,98910.7
2022-09-30T20:04:41.211Z,98921.5
2022-09-30T20:10:17.067Z,98921.9
2022-09-30T20:15:52.839Z,98916.3
2022-09-30T20:21:28.234Z,98923.3
2022-09-30T20:27:03.433Z,98922.1
2022-09-30T20:32:39.031Z,98925.2
2022-09-30T20:38:15.065Z,98925
2022-09-30T20:43:50.233Z,98927.8
2022-09-30T20:49:25.194Z,98928.9
2022-09-30T20:55:01.251Z,98934
2022-09-30T21:00:36.636Z,98939.9
2022-09-30T21:06:12.746Z,98930.2
2022-09-30T21:12:15.046Z,98932.4
2022-09-30T21:17:47.889Z,98942.8
2022-09-30T21:23:24.059Z,98946.5
2022-09-30T21:29:01.554Z,98944.6
2022-09-30T21:34:36.626Z,98946.6
2022-09-30T21:40:11.680Z,98944.5
2022-09-30T21:45:58.659Z,98949.1
2022-09-30T21:51:35.987Z,98948
2022-09-30T21:57:11.067Z,98941.8
2022-09-30T22:02:59.624Z,98945.5
2022-09-30T22:08:35.972Z,98953.1
2022-09-30T22:14:37.990Z,98958.3
2022-09-30T22:20:15.654Z,98968.8
2022-09-30T22:25:50.460Z,98976.5
2022-09-30T22:31:26.032Z,98988.7
2022-09-30T22:37:13.732Z,98989.8
2022-09-30T22:42:59.722Z,98991.3
2022-09-30T22:48:34.562Z,98996.2
2022-09-30T22:54:20.347Z,98996.5
2022-09-30T22:59:57.090Z,99001.5
2022-09-30T23:05:36.767Z,98994.6
2022-09-30T23:11:37.218Z,99000
2022-09-30T23:17:09.704Z,98988.8
2022-09-30T23:22:44.665Z,98997.6
2022-09-30T23:28:21.506Z,98992.8
2022-09-30T23:33:57.802Z,98994.9
2022-09-30T23:39:44.670Z,98985.6
2022-09-30T23:45:20.580Z,98986.1
2022-09-30T23:51:15.466Z,98984.1
2022-09-30T23:56:55.376Z,98979.9
